sensor_id;sensor_type;location;lat;lon;timestamp;temperature;humidity
796;DHT22;381;48.770;9.188;2023-05-27T00:01:49;16.90;88.60
796;DHT22;381;48.770;9.188;2023-05-27T00:06:51;16.90;87.50
796;DHT22;381;48.770;9.188;2023-05-27T00:11:53;16.90;88.60
796;DHT22;381;48.770;9.188;2023-05-27T00:16:56;16.90;89.20
796;DHT22;381;48.770;9.188;2023-05-27T00:22:00;16.90;88.30
796;DHT22;381;48.770;9.188;2023-05-27T00:27:02;16.90;89.20
796;DHT22;381;48.770;9.188;2023-05-27T00:32:05;17.00;90.00
796;DHT22;381;48.770;9.188;2023-05-27T00:37:07;16.90;89.20
796;DHT22;381;48.770;9.188;2023-05-27T00:42:13;16.90;89.60
796;DHT22;381;48.770;9.188;2023-05-27T00:47:16;16.90;89.70
796;DHT22;381;48.770;9.188;2023-05-27T00:52:19;16.80;89.60
796;DHT22;381;48.770;9.188;2023-05-27T00:57:21;16.80;88.90
796;DHT22;381;48.770;9.188;2023-05-27T01:02:25;16.80;89.50
796;DHT22;381;48.770;9.188;2023-05-27T01:07:32;16.70;89.50
796;DHT22;381;48.770;9.188;2023-05-27T01:12:41;16.60;89.90
796;DHT22;381;48.770;9.188;2023-05-27T01:17:48;16.60;89.80
796;DHT22;381;48.770;9.188;2023-05-27T01:22:54;16.60;90.10
796;DHT22;381;48.770;9.188;2023-05-27T01:27:58;16.50;90.00
796;DHT22;381;48.770;9.188;2023-05-27T01:33:05;16.40;89.40
796;DHT22;381;48.770;9.188;2023-05-27T01:38:13;16.40;89.20
796;DHT22;381;48.770;9.188;2023-05-27T01:43:18;16.30;90.00
796;DHT22;381;48.770;9.188;2023-05-27T01:48:20;16.20;89.10
796;DHT22;381;48.770;9.188;2023-05-27T01:53:23;16.20;90.30
796;DHT22;381;48.770;9.188;2023-05-27T01:58:26;16.20;90.50
796;DHT22;381;48.770;9.188;2023-05-27T02:03:28;16.10;90.60
796;DHT22;381;48.770;9.188;2023-05-27T02:08:31;16.10;90.00
796;DHT22;381;48.770;9.188;2023-05-27T02:13:35;16.00;90.10
796;DHT22;381;48.770;9.188;2023-05-27T02:18:38;16.00;90.10
796;DHT22;381;48.770;9.188;2023-05-27T02:23:42;15.90;90.50
796;DHT22;381;48.770;9.188;2023-05-27T02:28:45;15.90;90.60
796;DHT22;381;48.770;9.188;2023-05-27T02:33:47;15.80;90.70
796;DHT22;381;48.770;9.188;2023-05-27T02:38:50;15.80;90.70
796;DHT22;381;48.770;9.188;2023-05-27T02:43:52;15.80;90.60
796;DHT22;381;48.770;9.188;2023-05-27T02:48:54;15.70;90.60
796;DHT22;381;48.770;9.188;2023-05-27T02:53:58;15.70;90.60
796;DHT22;381;48.770;9.188;2023-05-27T02:59:00;15.70;90.90
796;DHT22;381;48.770;9.188;2023-05-27T03:04:02;15.60;91.00
796;DHT22;381;48.770;9.188;2023-05-27T03:09:07;15.60;90.80
796;DHT22;381;48.770;9.188;2023-05-27T03:14:10;15.60;91.00
796;DHT22;381;48.770;9.188;2023-05-27T03:19:12;15.50;91.00
796;DHT22;381;48.770;9.188;2023-05-27T03:24:16;15.50;91.20
796;DHT22;381;48.770;9.188;2023-05-27T03:29:18;15.50;90.80
796;DHT22;381;48.770;9.188;2023-05-27T03:34:21;15.40;90.70
796;DHT22;381;48.770;9.188;2023-05-27T03:39:25;15.40;91.00
796;DHT22;381;48.770;9.188;2023-05-27T03:44:32;15.40;91.00
796;DHT22;381;48.770;9.188;2023-05-27T03:49:35;15.30;91.20
796;DHT22;381;48.770;9.188;2023-05-27T03:54:38;15.30;91.10
796;DHT22;381;48.770;9.188;2023-05-27T03:59:41;15.30;91.30
796;DHT22;381;48.770;9.188;2023-05-27T04:04:43;15.30;90.70
796;DHT22;381;48.770;9.188;2023-05-27T04:09:48;15.30;90.80
796;DHT22;381;48.770;9.188;2023-05-27T04:14:50;15.30;91.80
796;DHT22;381;48.770;9.188;2023-05-27T04:19:52;15.30;91.40
796;DHT22;381;48.770;9.188;2023-05-27T04:24:57;15.20;91.60
796;DHT22;381;48.770;9.188;2023-05-27T04:30:00;15.20;91.70
796;DHT22;381;48.770;9.188;2023-05-27T04:35:04;15.30;92.20
796;DHT22;381;48.770;9.188;2023-05-27T04:40:11;15.30;91.90
796;DHT22;381;48.770;9.188;2023-05-27T04:45:33;15.30;92.40
796;DHT22;381;48.770;9.188;2023-05-27T04:50:36;15.40;92.10
796;DHT22;381;48.770;9.188;2023-05-27T04:55:39;15.40;92.10
796;DHT22;381;48.770;9.188;2023-05-27T05:00:43;15.40;92.60
796;DHT22;381;48.770;9.188;2023-05-27T05:05:54;15.40;93.20
796;DHT22;381;48.770;9.188;2023-05-27T05:10:58;15.50;92.60
796;DHT22;381;48.770;9.188;2023-05-27T05:16:01;15.50;92.80
796;DHT22;381;48.770;9.188;2023-05-27T05:21:03;15.60;92.90
796;DHT22;381;48.770;9.188;2023-05-27T05:26:15;15.60;93.00
796;DHT22;381;48.770;9.188;2023-05-27T05:31:19;15.70;93.20
796;DHT22;381;48.770;9.188;2023-05-27T05:36:22;15.80;92.90
796;DHT22;381;48.770;9.188;2023-05-27T05:41:31;15.90;92.00
796;DHT22;381;48.770;9.188;2023-05-27T05:46:33;16.00;92.40
796;DHT22;381;48.770;9.188;2023-05-27T05:51:36;16.10;91.50
796;DHT22;381;48.770;9.188;2023-05-27T05:56:39;16.20;91.40
796;DHT22;381;48.770;9.188;2023-05-27T06:01:42;16.30;92.20
796;DHT22;381;48.770;9.188;2023-05-27T06:06:44;16.40;92.10
796;DHT22;381;48.770;9.188;2023-05-27T06:11:59;16.50;92.00
796;DHT22;381;48.770;9.188;2023-05-27T06:17:06;16.60;91.70
796;DHT22;381;48.770;9.188;2023-05-27T06:22:09;16.70;91.00
796;DHT22;381;48.770;9.188;2023-05-27T06:27:50;16.80;91.50
796;DHT22;381;48.770;9.188;2023-05-27T06:32:52;16.90;90.00
796;DHT22;381;48.770;9.188;2023-05-27T06:37:58;17.00;90.70
796;DHT22;381;48.770;9.188;2023-05-27T06:43:02;17.20;90.30
796;DHT22;381;48.770;9.188;2023-05-27T06:48:04;17.40;91.40
796;DHT22;381;48.770;9.188;2023-05-27T06:53:07;17.60;89.80
796;DHT22;381;48.770;9.188;2023-05-27T06:58:34;17.80;89.20
796;DHT22;381;48.770;9.188;2023-05-27T07:03:41;18.00;91.00
796;DHT22;381;48.770;9.188;2023-05-27T07:30:47;18.90;89.10
796;DHT22;381;48.770;9.188;2023-05-27T07:35:49;19.20;88.70
796;DHT22;381;48.770;9.188;2023-05-27T08:13:28;20.50;85.10
796;DHT22;381;48.770;9.188;2023-05-27T08:18:53;20.70;86.70
796;DHT22;381;48.770;9.188;2023-05-27T08:24:03;21.40;81.90
796;DHT22;381;48.770;9.188;2023-05-27T08:29:26;22.30;84.70
796;DHT22;381;48.770;9.188;2023-05-27T08:34:50;23.10;84.00
796;DHT22;381;48.770;9.188;2023-05-27T08:39:57;23.80;80.20
796;DHT22;381;48.770;9.188;2023-05-27T08:45:16;24.30;73.70
796;DHT22;381;48.770;9.188;2023-05-27T08:50:19;24.70;74.70
796;DHT22;381;48.770;9.188;2023-05-27T08:55:22;24.90;71.70
796;DHT22;381;48.770;9.188;2023-05-27T09:00:29;25.20;73.00
796;DHT22;381;48.770;9.188;2023-05-27T09:05:39;25.40;69.90
796;DHT22;381;48.770;9.188;2023-05-27T09:10:42;25.60;72.30
796;DHT22;381;48.770;9.188;2023-05-27T09:15:45;25.80;73.00
796;DHT22;381;48.770;9.188;2023-05-27T09:20:48;26.10;69.80
796;DHT22;381;48.770;9.188;2023-05-27T09:25:50;26.10;74.30
796;DHT22;381;48.770;9.188;2023-05-27T09:30:59;26.20;72.40
796;DHT22;381;48.770;9.188;2023-05-27T09:36:03;26.40;71.20
796;DHT22;381;48.770;9.188;2023-05-27T09:41:05;26.50;71.20
796;DHT22;381;48.770;9.188;2023-05-27T09:46:12;26.70;72.90
796;DHT22;381;48.770;9.188;2023-05-27T09:51:16;26.80;69.80
796;DHT22;381;48.770;9.188;2023-05-27T09:56:18;27.00;74.90
796;DHT22;381;48.770;9.188;2023-05-27T10:01:21;27.20;71.20
796;DHT22;381;48.770;9.188;2023-05-27T10:06:26;27.40;69.80
796;DHT22;381;48.770;9.188;2023-05-27T10:11:30;27.70;70.00
796;DHT22;381;48.770;9.188;2023-05-27T10:16:34;28.20;71.30
796;DHT22;381;48.770;9.188;2023-05-27T10:21:42;28.30;68.40
796;DHT22;381;48.770;9.188;2023-05-27T10:26:46;27.70;70.00
796;DHT22;381;48.770;9.188;2023-05-27T10:31:51;27.00;67.60
796;DHT22;381;48.770;9.188;2023-05-27T10:36:59;26.20;68.50
796;DHT22;381;48.770;9.188;2023-05-27T10:42:01;25.50;70.80
796;DHT22;381;48.770;9.188;2023-05-27T10:47:09;25.00;70.20
796;DHT22;381;48.770;9.188;2023-05-27T10:52:13;24.60;74.30
796;DHT22;381;48.770;9.188;2023-05-27T10:57:17;24.20;70.90
796;DHT22;381;48.770;9.188;2023-05-27T11:02:22;23.90;72.70
796;DHT22;381;48.770;9.188;2023-05-27T11:07:24;23.60;78.40
796;DHT22;381;48.770;9.188;2023-05-27T11:12:26;23.40;75.50
796;DHT22;381;48.770;9.188;2023-05-27T11:17:30;23.20;75.80
796;DHT22;381;48.770;9.188;2023-05-27T11:22:32;23.10;78.00
796;DHT22;381;48.770;9.188;2023-05-27T11:27:37;23.00;74.10
796;DHT22;381;48.770;9.188;2023-05-27T11:32:41;22.90;79.00
796;DHT22;381;48.770;9.188;2023-05-27T11:37:49;22.80;76.50
796;DHT22;381;48.770;9.188;2023-05-27T11:42:51;22.70;74.40
796;DHT22;381;48.770;9.188;2023-05-27T11:47:55;22.70;73.20
796;DHT22;381;48.770;9.188;2023-05-27T11:53:03;22.60;77.60
796;DHT22;381;48.770;9.188;2023-05-27T11:58:05;22.50;76.50
796;DHT22;381;48.770;9.188;2023-05-27T12:03:08;22.50;71.70
796;DHT22;381;48.770;9.188;2023-05-27T12:08:11;22.40;73.60
796;DHT22;381;48.770;9.188;2023-05-27T12:13:13;22.40;72.30
796;DHT22;381;48.770;9.188;2023-05-27T12:18:17;22.50;72.10
796;DHT22;381;48.770;9.188;2023-05-27T12:23:19;22.50;77.00
796;DHT22;381;48.770;9.188;2023-05-27T12:28:21;22.40;76.60
796;DHT22;381;48.770;9.188;2023-05-27T12:33:25;22.40;72.70
796;DHT22;381;48.770;9.188;2023-05-27T12:38:27;22.50;71.20
796;DHT22;381;48.770;9.188;2023-05-27T12:43:29;22.50;70.60
796;DHT22;381;48.770;9.188;2023-05-27T12:48:32;22.40;74.60
796;DHT22;381;48.770;9.188;2023-05-27T12:53:34;22.50;71.20
796;DHT22;381;48.770;9.188;2023-05-27T12:58:36;22.50;70.50
796;DHT22;381;48.770;9.188;2023-05-27T13:03:40;22.50;72.00
796;DHT22;381;48.770;9.188;2023-05-27T13:08:43;22.50;75.50
796;DHT22;381;48.770;9.188;2023-05-27T13:13:50;22.60;71.70
796;DHT22;381;48.770;9.188;2023-05-27T15:08:35;22.30;63.70
796;DHT22;381;48.770;9.188;2023-05-27T15:13:38;22.20;69.80
796;DHT22;381;48.770;9.188;2023-05-27T15:18:40;22.10;67.20
796;DHT22;381;48.770;9.188;2023-05-27T15:23:43;22.20;58.80
796;DHT22;381;48.770;9.188;2023-05-27T16:29:05;22.00;61.20
796;DHT22;381;48.770;9.188;2023-05-27T16:34:09;22.00;67.40
796;DHT22;381;48.770;9.188;2023-05-27T16:39:13;22.00;62.30
796;DHT22;381;48.770;9.188;2023-05-27T16:44:16;22.00;70.60
796;DHT22;381;48.770;9.188;2023-05-27T16:49:18;21.90;66.30
796;DHT22;381;48.770;9.188;2023-05-27T16:54:21;21.80;69.30
796;DHT22;381;48.770;9.188;2023-05-27T16:59:23;21.80;69.80
796;DHT22;381;48.770;9.188;2023-05-27T17:04:25;21.80;74.40
796;DHT22;381;48.770;9.188;2023-05-27T17:09:29;21.60;77.40
796;DHT22;381;48.770;9.188;2023-05-27T17:14:31;21.50;76.80
796;DHT22;381;48.770;9.188;2023-05-27T17:19:34;21.50;69.50
796;DHT22;381;48.770;9.188;2023-05-27T17:24:37;21.40;74.00
796;DHT22;381;48.770;9.188;2023-05-27T17:29:40;21.40;72.30
796;DHT22;381;48.770;9.188;2023-05-27T17:34:45;21.40;71.60
796;DHT22;381;48.770;9.188;2023-05-27T17:39:49;21.40;77.00
796;DHT22;381;48.770;9.188;2023-05-27T17:44:51;21.40;72.90
796;DHT22;381;48.770;9.188;2023-05-27T17:49:53;21.30;74.80
796;DHT22;381;48.770;9.188;2023-05-27T17:54:57;21.30;69.10
796;DHT22;381;48.770;9.188;2023-05-27T17:59:59;21.20;75.60
796;DHT22;381;48.770;9.188;2023-05-27T18:05:01;21.20;70.20
796;DHT22;381;48.770;9.188;2023-05-27T18:10:06;21.20;76.20
796;DHT22;381;48.770;9.188;2023-05-27T18:15:10;21.10;82.00
796;DHT22;381;48.770;9.188;2023-05-27T18:20:12;21.00;84.00
796;DHT22;381;48.770;9.188;2023-05-27T18:25:16;20.90;85.10
796;DHT22;381;48.770;9.188;2023-05-27T18:30:18;20.80;79.60
796;DHT22;381;48.770;9.188;2023-05-27T18:35:20;20.80;75.20
796;DHT22;381;48.770;9.188;2023-05-27T18:40:24;20.80;74.80
796;DHT22;381;48.770;9.188;2023-05-27T18:45:48;20.80;76.40
796;DHT22;381;48.770;9.188;2023-05-27T18:50:51;20.80;77.20
796;DHT22;381;48.770;9.188;2023-05-27T18:55:55;20.70;75.10
796;DHT22;381;48.770;9.188;2023-05-27T19:00:57;20.70;77.10
796;DHT22;381;48.770;9.188;2023-05-27T19:05:59;20.60;78.30
796;DHT22;381;48.770;9.188;2023-05-27T19:11:03;20.50;79.70
796;DHT22;381;48.770;9.188;2023-05-27T19:16:06;20.50;81.20
796;DHT22;381;48.770;9.188;2023-05-27T19:21:08;20.40;82.90
796;DHT22;381;48.770;9.188;2023-05-27T19:26:12;20.30;83.20
796;DHT22;381;48.770;9.188;2023-05-27T19:31:14;20.20;82.80
796;DHT22;381;48.770;9.188;2023-05-27T19:36:17;20.10;81.10
796;DHT22;381;48.770;9.188;2023-05-27T19:41:20;20.00;79.00
796;DHT22;381;48.770;9.188;2023-05-27T19:46:23;20.00;81.20
796;DHT22;381;48.770;9.188;2023-05-27T19:56:44;19.80;80.20
796;DHT22;381;48.770;9.188;2023-05-27T20:01:46;19.70;78.60
796;DHT22;381;48.770;9.188;2023-05-27T20:06:48;19.70;76.00
796;DHT22;381;48.770;9.188;2023-05-27T20:11:54;19.60;76.50
796;DHT22;381;48.770;9.188;2023-05-27T21:18:23;18.70;81.60
796;DHT22;381;48.770;9.188;2023-05-27T21:23:26;18.60;80.70
796;DHT22;381;48.770;9.188;2023-05-27T21:28:29;18.50;82.20
796;DHT22;381;48.770;9.188;2023-05-27T21:33:32;18.50;81.80
796;DHT22;381;48.770;9.188;2023-05-27T21:38:34;18.50;80.80
796;DHT22;381;48.770;9.188;2023-05-27T21:43:37;18.40;81.20
796;DHT22;381;48.770;9.188;2023-05-27T21:48:40;18.40;80.00
796;DHT22;381;48.770;9.188;2023-05-27T21:53:44;18.30;80.30
796;DHT22;381;48.770;9.188;2023-05-27T21:58:46;18.30;80.90
796;DHT22;381;48.770;9.188;2023-05-27T22:03:50;18.20;79.50
796;DHT22;381;48.770;9.188;2023-05-27T22:08:52;18.20;80.60
796;DHT22;381;48.770;9.188;2023-05-27T22:13:54;18.10;82.10
796;DHT22;381;48.770;9.188;2023-05-27T22:18:58;18.10;81.80
796;DHT22;381;48.770;9.188;2023-05-27T22:24:00;18.10;81.70
796;DHT22;381;48.770;9.188;2023-05-27T22:29:03;18.00;82.30
796;DHT22;381;48.770;9.188;2023-05-27T22:34:07;18.00;81.40
796;DHT22;381;48.770;9.188;2023-05-27T22:39:10;17.90;82.90
796;DHT22;381;48.770;9.188;2023-05-27T22:44:12;17.90;82.30
796;DHT22;381;48.770;9.188;2023-05-27T22:49:15;17.80;82.70
796;DHT22;381;48.770;9.188;2023-05-27T22:54:17;17.80;81.00
796;DHT22;381;48.770;9.188;2023-05-27T22:59:19;17.70;81.60
796;DHT22;381;48.770;9.188;2023-05-27T23:04:23;17.70;80.00
796;DHT22;381;48.770;9.188;2023-05-27T23:09:25;17.60;80.60
796;DHT22;381;48.770;9.188;2023-05-27T23:14:27;17.50;81.40
796;DHT22;381;48.770;9.188;2023-05-27T23:19:30;17.50;81.10
796;DHT22;381;48.770;9.188;2023-05-27T23:24:33;17.50;80.70
796;DHT22;381;48.770;9.188;2023-05-27T23:29:35;17.40;81.20
796;DHT22;381;48.770;9.188;2023-05-27T23:34:38;17.40;81.80
796;DHT22;381;48.770;9.188;2023-05-27T23:39:40;17.40;81.90
796;DHT22;381;48.770;9.188;2023-05-27T23:44:42;17.30;82.60
796;DHT22;381;48.770;9.188;2023-05-27T23:49:46;17.30;83.40
796;DHT22;381;48.770;9.188;2023-05-27T23:54:48;17.20;83.60
796;DHT22;381;48.770;9.188;2023-05-27T23:59:50;17.20;85.40
